Time;durP1;ratioP1;P1;durP2;ratioP2;P2;SDS_P1;SDS_P2;PMS_P1;PMS_P2;Temp;Humidity;BMP_temperature;BMP_pressure;BME280_temperature;BME280_humidity;BME280_pressure;Samples;Min_cycle;Max_cycle;Signal;HPM_P1;HPM_P2
2022/07/17 00:00:42;;;;;;;6.33;4.90;;;;;;;;;;5053221;28;20207;-41
2022/07/17 00:03:08;;;;;;;7.13;5.00;;;;;;;;;;5053220;28;20182;-43
2022/07/17 00:05:34;;;;;;;7.83;5.03;;;;;;;;;;5054774;28;20625;-41
2022/07/17 00:08:00;;;;;;;6.20;4.60;;;;;;;;;;5049675;28;20179;-40
2022/07/17 00:10:27;;;;;;;7.30;4.30;;;;;;;;;;5052778;28;20649;-40
2022/07/17 00:12:53;;;;;;;7.23;4.00;;;;;;;;;;5055637;28;20252;-40
2022/07/17 00:15:19;;;;;;;6.70;4.23;;;;;;;;;;5051834;28;20274;-41
2022/07/17 00:17:45;;;;;;;6.63;4.07;;;;;;;;;;5053296;28;20385;-43
2022/07/17 00:20:12;;;;;;;7.67;4.13;;;;;;;;;;5053874;28;20776;-41
2022/07/17 00:22:38;;;;;;;6.37;4.37;;;;;;;;;;5054861;28;20178;-41
2022/07/17 00:25:05;;;;;;;5.00;3.63;;;;;;;;;;5054294;28;20494;-41
2022/07/17 00:27:31;;;;;;;7.07;4.27;;;;;;;;;;5050990;28;20181;-40
2022/07/17 00:29:57;;;;;;;8.30;4.43;;;;;;;;;;5050344;28;20520;-41
2022/07/17 00:32:23;;;;;;;7.10;4.20;;;;;;;;;;5043619;28;20170;-40
2022/07/17 00:34:50;;;;;;;8.13;4.63;;;;;;;;;;5054173;28;20213;-41
2022/07/17 00:37:17;;;;;;;7.10;4.80;;;;;;;;;;5051926;28;20683;-41
2022/07/17 00:39:43;;;;;;;10.23;5.03;;;;;;;;;;5049193;28;20185;-41
2022/07/17 00:42:13;;;;;;;6.43;4.60;;;;;;;;;;5052406;28;20171;-41
2022/07/17 00:44:40;;;;;;;9.93;4.83;;;;;;;;;;5050243;28;20252;-41
2022/07/17 00:47:10;;;;;;;5.40;4.17;;;;;;;;;;5050659;28;20221;-42
2022/07/17 00:49:36;;;;;;;5.90;4.23;;;;;;;;;;5049776;28;20208;-40
2022/07/17 00:52:02;;;;;;;7.20;5.00;;;;;;;;;;5051462;28;20570;-42
2022/07/17 00:54:30;;;;;;;11.77;5.10;;;;;;;;;;5049665;28;20656;-42
2022/07/17 00:56:56;;;;;;;7.70;4.73;;;;;;;;;;5052667;28;20554;-41
2022/07/17 00:59:25;;;;;;;6.97;4.63;;;;;;;;;;5051148;28;20435;-41
2022/07/17 01:01:51;;;;;;;7.73;5.30;;;;;;;;;;5050912;28;20505;-42
2022/07/17 01:04:17;;;;;;;5.87;5.13;;;;;;;;;;5049887;28;20661;-42
2022/07/17 01:06:43;;;;;;;7.93;5.30;;;;;;;;;;5053513;28;20480;-42
2022/07/17 01:09:12;;;;;;;7.27;5.17;;;;;;;;;;5049770;28;20347;-42
2022/07/17 01:11:38;;;;;;;8.53;5.97;;;;;;;;;;5050378;28;20457;-42
2022/07/17 01:14:04;;;;;;;7.83;5.23;;;;;;;;;;5047004;28;20243;-41
2022/07/17 01:16:31;;;;;;;9.60;5.47;;;;;;;;;;5046716;28;20272;-42
2022/07/17 01:18:57;;;;;;;7.77;6.37;;;;;;;;;;5039729;28;20750;-41
2022/07/17 01:21:23;;;;;;;10.00;6.50;;;;;;;;;;5050865;28;20524;-42
2022/07/17 01:23:49;;;;;;;8.80;6.10;;;;;;;;;;5050951;28;20711;-41
2022/07/17 01:26:16;;;;;;;9.30;6.37;;;;;;;;;;5045761;28;20194;-42
2022/07/17 01:28:42;;;;;;;6.40;4.87;;;;;;;;;;5051355;28;20266;-41
2022/07/17 01:31:08;;;;;;;9.07;6.67;;;;;;;;;;5051020;28;20244;-42
2022/07/17 01:33:34;;;;;;;10.97;5.70;;;;;;;;;;5043673;28;20283;-42
2022/07/17 01:36:00;;;;;;;10.10;6.47;;;;;;;;;;5044713;28;20750;-42
2022/07/17 01:38:26;;;;;;;8.83;6.97;;;;;;;;;;5048915;28;20233;-40
2022/07/17 01:40:52;;;;;;;10.20;6.87;;;;;;;;;;5049949;28;20731;-42
2022/07/17 01:43:18;;;;;;;8.03;6.30;;;;;;;;;;5050560;28;20168;-42
2022/07/17 01:45:45;;;;;;;7.83;6.30;;;;;;;;;;5049627;28;20507;-42
2022/07/17 01:48:11;;;;;;;8.90;7.83;;;;;;;;;;5048110;28;20361;-41
2022/07/17 01:50:37;;;;;;;10.63;8.10;;;;;;;;;;5052180;28;20259;-41
2022/07/17 01:53:03;;;;;;;9.90;7.40;;;;;;;;;;5050603;28;20182;-41
2022/07/17 01:55:29;;;;;;;9.03;7.07;;;;;;;;;;5046526;28;20200;-42
2022/07/17 01:57:55;;;;;;;9.37;8.00;;;;;;;;;;5048269;28;20182;-42
2022/07/17 02:00:24;;;;;;;8.80;7.87;;;;;;;;;;5050214;28;20614;-41
2022/07/17 02:02:50;;;;;;;9.00;7.93;;;;;;;;;;5048060;28;20291;-41
2022/07/17 02:05:16;;;;;;;10.37;7.90;;;;;;;;;;5049392;28;20727;-41
2022/07/17 02:07:44;;;;;;;9.83;8.13;;;;;;;;;;5051687;28;20535;-41
2022/07/17 02:10:10;;;;;;;11.70;9.40;;;;;;;;;;5051277;28;20178;-41
2022/07/17 02:12:36;;;;;;;9.70;8.67;;;;;;;;;;5051014;28;20616;-41
2022/07/17 02:15:03;;;;;;;13.43;8.67;;;;;;;;;;5047677;28;21825;-41
2022/07/17 02:17:29;;;;;;;10.37;8.63;;;;;;;;;;5051582;28;20178;-41
2022/07/17 02:19:56;;;;;;;12.00;8.20;;;;;;;;;;5050136;28;20752;-40
2022/07/17 02:22:22;;;;;;;10.20;7.90;;;;;;;;;;5049693;28;20221;-41
2022/07/17 02:24:48;;;;;;;11.03;9.23;;;;;;;;;;5050053;28;20879;-41
2022/07/17 02:27:14;;;;;;;12.40;9.23;;;;;;;;;;5051529;28;20237;-42
2022/07/17 02:29:40;;;;;;;11.17;8.60;;;;;;;;;;5050408;28;20186;-41
2022/07/17 02:32:06;;;;;;;9.60;8.57;;;;;;;;;;5049967;28;20689;-41
2022/07/17 02:34:32;;;;;;;10.83;8.47;;;;;;;;;;5048045;28;20210;-40
2022/07/17 02:36:58;;;;;;;9.17;7.57;;;;;;;;;;5050422;28;20458;-41
2022/07/17 02:39:24;;;;;;;8.83;7.50;;;;;;;;;;5051205;28;20749;-41
2022/07/17 02:41:50;;;;;;;8.17;7.30;;;;;;;;;;5048652;28;20419;-41
2022/07/17 02:44:16;;;;;;;8.53;7.67;;;;;;;;;;5046596;28;20197;-41
2022/07/17 02:46:43;;;;;;;10.40;7.70;;;;;;;;;;5047434;28;20715;-41
2022/07/17 02:49:09;;;;;;;10.63;7.60;;;;;;;;;;5051603;28;20171;-42
2022/07/17 02:51:35;;;;;;;9.87;8.03;;;;;;;;;;5036802;28;20209;-41
2022/07/17 02:54:01;;;;;;;9.80;7.57;;;;;;;;;;5051108;28;20205;-41
2022/07/17 02:56:27;;;;;;;14.63;8.30;;;;;;;;;;5050336;28;20304;-41
2022/07/17 02:58:53;;;;;;;9.60;7.90;;;;;;;;;;5049182;28;20362;-42
2022/07/17 03:01:19;;;;;;;10.23;7.77;;;;;;;;;;5047026;28;20685;-42
2022/07/17 03:03:46;;;;;;;9.57;8.37;;;;;;;;;;5048083;28;20678;-42
2022/07/17 03:06:12;;;;;;;7.97;7.10;;;;;;;;;;5049426;28;20174;-41
2022/07/17 03:08:38;;;;;;;11.30;7.87;;;;;;;;;;5045304;28;20184;-42
2022/07/17 03:11:04;;;;;;;11.80;8.20;;;;;;;;;;5043257;28;20243;-42
2022/07/17 03:13:30;;;;;;;14.37;8.13;;;;;;;;;;5045160;28;20335;-42
2022/07/17 03:15:56;;;;;;;15.90;7.70;;;;;;;;;;5049546;28;20918;-42
2022/07/17 03:18:22;;;;;;;9.90;8.30;;;;;;;;;;5039175;28;20309;-42
2022/07/17 03:20:48;;;;;;;14.13;8.17;;;;;;;;;;5044576;28;20906;-42
2022/07/17 03:23:14;;;;;;;10.97;8.93;;;;;;;;;;5051658;28;20227;-40
2022/07/17 03:25:40;;;;;;;10.53;8.30;;;;;;;;;;5046479;28;20191;-42
2022/07/17 03:28:06;;;;;;;10.93;8.70;;;;;;;;;;5043886;28;20178;-41
2022/07/17 03:30:33;;;;;;;10.93;8.53;;;;;;;;;;5048073;28;21598;-42
2022/07/17 03:32:59;;;;;;;11.50;9.67;;;;;;;;;;5051943;28;20291;-41
2022/07/17 03:35:25;;;;;;;9.97;8.53;;;;;;;;;;5053141;28;20304;-43
2022/07/17 03:37:51;;;;;;;9.63;8.40;;;;;;;;;;5057638;28;21110;-42
2022/07/17 03:40:17;;;;;;;10.50;8.73;;;;;;;;;;5053870;28;20240;-42
2022/07/17 03:42:43;;;;;;;9.30;7.97;;;;;;;;;;5054711;28;20174;-43
2022/07/17 03:45:09;;;;;;;8.87;7.67;;;;;;;;;;5056223;28;20186;-42
2022/07/17 03:47:36;;;;;;;8.67;7.37;;;;;;;;;;5055828;28;20186;-42
2022/07/17 03:50:02;;;;;;;9.07;8.03;;;;;;;;;;5053044;28;20175;-42
2022/07/17 03:52:28;;;;;;;9.73;7.93;;;;;;;;;;5052462;28;20188;-42
2022/07/17 03:54:54;;;;;;;9.73;8.53;;;;;;;;;;5056230;28;20336;-43
2022/07/17 03:57:20;;;;;;;10.57;9.07;;;;;;;;;;5041546;28;20175;-42
2022/07/17 03:59:46;;;;;;;13.90;9.53;;;;;;;;;;5053000;28;20715;-42
2022/07/17 04:02:12;;;;;;;13.87;8.47;;;;;;;;;;5053564;28;20171;-42
2022/07/17 04:04:38;;;;;;;13.87;9.67;;;;;;;;;;5054733;28;21061;-42
2022/07/17 04:07:04;;;;;;;13.70;8.70;;;;;;;;;;5055330;28;20178;-42
2022/07/17 04:09:31;;;;;;;9.70;8.70;;;;;;;;;;5056154;28;20175;-42
2022/07/17 04:11:57;;;;;;;18.97;9.20;;;;;;;;;;5059919;28;20248;-42
2022/07/17 04:14:23;;;;;;;15.33;8.13;;;;;;;;;;5054507;28;20190;-42
2022/07/17 04:16:49;;;;;;;10.90;9.17;;;;;;;;;;5053702;28;20170;-42
2022/07/17 04:19:15;;;;;;;13.30;9.03;;;;;;;;;;5056843;28;20167;-41
2022/07/17 04:21:41;;;;;;;14.77;8.53;;;;;;;;;;5054413;28;20323;-42
2022/07/17 04:24:07;;;;;;;11.67;9.00;;;;;;;;;;5052918;28;20179;-42
2022/07/17 04:26:33;;;;;;;13.13;9.80;;;;;;;;;;5041200;28;20185;-42
2022/07/17 04:28:59;;;;;;;11.13;8.77;;;;;;;;;;5054887;28;20209;-41
2022/07/17 04:31:25;;;;;;;11.80;8.77;;;;;;;;;;5050981;28;21060;-42
2022/07/17 04:33:53;;;;;;;14.57;9.57;;;;;;;;;;5051911;28;20179;-41
2022/07/17 04:36:19;;;;;;;11.17;9.00;;;;;;;;;;5051347;28;20799;-41
2022/07/17 04:38:46;;;;;;;12.50;9.33;;;;;;;;;;5048536;28;20182;-41
2022/07/17 04:41:12;;;;;;;11.20;8.40;;;;;;;;;;5050493;28;20183;-41
2022/07/17 04:43:38;;;;;;;9.93;8.93;;;;;;;;;;5050516;28;20210;-40
2022/07/17 04:46:04;;;;;;;10.03;9.03;;;;;;;;;;5053033;28;20323;-41
2022/07/17 04:48:30;;;;;;;12.03;9.40;;;;;;;;;;5050427;28;21303;-41
2022/07/17 04:50:56;;;;;;;11.30;9.10;;;;;;;;;;5048705;28;20171;-40
2022/07/17 04:53:22;;;;;;;11.27;9.47;;;;;;;;;;5047229;28;20187;-42
2022/07/17 04:55:48;;;;;;;9.40;8.40;;;;;;;;;;5050882;28;21132;-42
2022/07/17 04:58:15;;;;;;;12.00;9.13;;;;;;;;;;5047670;28;20230;-41
2022/07/17 05:00:41;;;;;;;10.27;8.87;;;;;;;;;;5049342;28;21109;-41
2022/07/17 05:03:07;;;;;;;9.70;8.70;;;;;;;;;;5049674;28;20171;-42
2022/07/17 05:05:33;;;;;;;9.80;8.90;;;;;;;;;;5047261;28;20226;-42
2022/07/17 05:07:59;;;;;;;10.43;9.27;;;;;;;;;;5049919;28;20175;-42
2022/07/17 05:10:25;;;;;;;10.77;9.23;;;;;;;;;;5049098;28;20272;-42
2022/07/17 05:12:51;;;;;;;10.03;8.33;;;;;;;;;;5052223;28;20175;-44
2022/07/17 05:15:17;;;;;;;13.17;8.30;;;;;;;;;;5049806;28;20205;-41
2022/07/17 05:17:43;;;;;;;9.33;8.33;;;;;;;;;;5053078;28;22423;-42
2022/07/17 05:20:10;;;;;;;11.00;8.10;;;;;;;;;;5047963;28;20163;-42
2022/07/17 05:22:36;;;;;;;9.63;7.80;;;;;;;;;;5051543;28;20170;-42
2022/07/17 05:25:02;;;;;;;13.43;9.20;;;;;;;;;;5052506;28;20996;-41
2022/07/17 05:27:28;;;;;;;11.20;9.97;;;;;;;;;;5049390;28;20217;-42
2022/07/17 05:29:55;;;;;;;11.10;8.83;;;;;;;;;;5046525;28;20182;-42
2022/07/17 05:32:21;;;;;;;10.97;9.80;;;;;;;;;;5048192;28;20208;-42
2022/07/17 05:34:47;;;;;;;9.93;8.57;;;;;;;;;;5052849;28;20212;-42
2022/07/17 05:37:13;;;;;;;11.23;8.00;;;;;;;;;;5047984;28;20171;-42
2022/07/17 05:39:39;;;;;;;12.97;9.57;;;;;;;;;;5048332;28;20171;-42
2022/07/17 05:42:06;;;;;;;10.07;7.80;;;;;;;;;;5053568;28;21145;-42
2022/07/17 05:44:32;;;;;;;10.50;8.27;;;;;;;;;;5051937;28;20334;-41
2022/07/17 05:46:58;;;;;;;12.07;8.63;;;;;;;;;;5049251;28;20233;-40
2022/07/17 05:49:24;;;;;;;11.20;8.67;;;;;;;;;;5050264;28;20182;-42
2022/07/17 05:51:50;;;;;;;12.53;9.17;;;;;;;;;;5050140;28;20179;-42
2022/07/17 05:54:16;;;;;;;11.90;8.87;;;;;;;;;;5046486;28;20247;-40
2022/07/17 05:56:42;;;;;;;11.90;8.93;;;;;;;;;;5049792;28;20182;-42
2022/07/17 05:59:08;;;;;;;11.80;9.00;;;;;;;;;;5049860;28;21079;-42
2022/07/17 06:01:35;;;;;;;11.17;9.27;;;;;;;;;;5046789;28;20167;-42
2022/07/17 06:04:01;;;;;;;12.47;8.40;;;;;;;;;;5044894;28;21122;-42
2022/07/17 06:06:27;;;;;;;9.77;8.20;;;;;;;;;;5050244;28;21988;-41
2022/07/17 06:08:53;;;;;;;14.27;8.60;;;;;;;;;;5042846;28;20179;-42
2022/07/17 06:11:19;;;;;;;10.70;8.70;;;;;;;;;;5047708;28;21006;-42
2022/07/17 06:13:45;;;;;;;10.70;8.60;;;;;;;;;;5049130;28;20922;-41
2022/07/17 06:16:11;;;;;;;16.33;8.63;;;;;;;;;;5044471;28;20313;-41
2022/07/17 06:18:37;;;;;;;14.67;8.40;;;;;;;;;;5045310;28;20182;-41
2022/07/17 06:21:03;;;;;;;11.37;8.13;;;;;;;;;;5049686;28;20254;-41
2022/07/17 06:23:30;;;;;;;13.77;9.43;;;;;;;;;;5043078;28;20980;-41
2022/07/17 06:25:56;;;;;;;10.13;8.40;;;;;;;;;;5047753;28;20200;-41
2022/07/17 06:28:22;;;;;;;10.10;8.60;;;;;;;;;;5048667;28;20187;-41
2022/07/17 06:30:48;;;;;;;10.07;8.97;;;;;;;;;;5045445;28;20175;-41
2022/07/17 06:33:14;;;;;;;10.57;9.23;;;;;;;;;;5049350;28;20185;-41
2022/07/17 06:35:40;;;;;;;14.07;9.63;;;;;;;;;;5051111;28;20987;-41
2022/07/17 06:38:06;;;;;;;13.23;10.07;;;;;;;;;;5045711;28;20182;-41
2022/07/17 06:40:33;;;;;;;13.37;9.90;;;;;;;;;;5044179;28;20203;-41
2022/07/17 06:42:59;;;;;;;14.83;9.57;;;;;;;;;;5051400;28;20180;-41
2022/07/17 06:45:25;;;;;;;12.10;10.23;;;;;;;;;;5048282;28;21104;-41
2022/07/17 06:47:51;;;;;;;13.63;8.63;;;;;;;;;;5047041;28;20179;-41
2022/07/17 06:50:17;;;;;;;15.60;10.13;;;;;;;;;;5047112;28;20885;-41
2022/07/17 06:52:43;;;;;;;15.80;10.07;;;;;;;;;;5047028;28;20210;-41
2022/07/17 06:55:09;;;;;;;14.63;9.20;;;;;;;;;;5043668;28;20280;-41
2022/07/17 06:57:35;;;;;;;12.63;8.90;;;;;;;;;;5050046;28;21062;-41
2022/07/17 07:00:01;;;;;;;15.53;11.37;;;;;;;;;;5055071;28;20178;-40
2022/07/17 07:02:27;;;;;;;10.53;8.97;;;;;;;;;;5052657;28;20179;-41
2022/07/17 07:04:53;;;;;;;11.63;9.30;;;;;;;;;;5051656;28;21570;-41
2022/07/17 07:07:19;;;;;;;11.57;8.33;;;;;;;;;;5055056;28;20300;-40
2022/07/17 07:09:46;;;;;;;11.10;8.60;;;;;;;;;;5049409;28;20182;-40
2022/07/17 07:12:12;;;;;;;12.60;9.60;;;;;;;;;;5045905;28;20813;-41
2022/07/17 07:14:38;;;;;;;11.33;9.33;;;;;;;;;;5046289;28;20217;-41
2022/07/17 07:17:05;;;;;;;11.97;8.80;;;;;;;;;;5053557;28;20182;-43
2022/07/17 07:19:31;;;;;;;13.67;8.97;;;;;;;;;;5054697;28;20757;-44
2022/07/17 07:21:57;;;;;;;12.57;8.23;;;;;;;;;;5049698;28;20275;-44
2022/07/17 07:24:23;;;;;;;14.53;9.73;;;;;;;;;;5051461;28;20180;-44
2022/07/17 07:26:49;;;;;;;10.13;8.27;;;;;;;;;;5052953;28;20755;-44
2022/07/17 07:29:15;;;;;;;12.20;9.37;;;;;;;;;;5040020;28;20185;-44
2022/07/17 07:31:41;;;;;;;10.57;8.07;;;;;;;;;;5041410;28;20174;-43
2022/07/17 07:34:08;;;;;;;14.87;9.23;;;;;;;;;;5056184;28;20285;-42
2022/07/17 07:36:34;;;;;;;10.87;8.40;;;;;;;;;;5047987;28;20171;-42
2022/07/17 07:39:00;;;;;;;13.30;8.43;;;;;;;;;;5047153;28;20181;-42
2022/07/17 07:41:26;;;;;;;16.27;8.23;;;;;;;;;;5046485;28;20180;-42
2022/07/17 07:43:52;;;;;;;12.00;7.57;;;;;;;;;;5044731;28;20176;-41
2022/07/17 07:46:18;;;;;;;13.10;8.53;;;;;;;;;;5046192;28;20577;-41
2022/07/17 07:48:44;;;;;;;14.37;8.47;;;;;;;;;;5047734;28;20202;-41
2022/07/17 07:51:11;;;;;;;12.40;7.57;;;;;;;;;;5049119;28;20174;-41
2022/07/17 07:53:37;;;;;;;10.03;7.20;;;;;;;;;;5042858;28;20187;-41
2022/07/17 07:56:03;;;;;;;8.43;6.17;;;;;;;;;;5042946;28;20986;-42
2022/07/17 07:58:29;;;;;;;9.77;6.60;;;;;;;;;;5046517;28;20172;-42
2022/07/17 08:00:55;;;;;;;10.83;7.23;;;;;;;;;;5045353;28;20474;-41
2022/07/17 08:03:21;;;;;;;10.77;6.60;;;;;;;;;;5043471;28;20691;-41
2022/07/17 08:05:48;;;;;;;14.07;6.43;;;;;;;;;;5030808;28;20172;-41
2022/07/17 08:08:14;;;;;;;7.77;6.53;;;;;;;;;;5046764;28;20193;-40
2022/07/17 08:10:40;;;;;;;11.63;6.80;;;;;;;;;;5044998;28;20698;-42
2022/07/17 08:13:06;;;;;;;9.77;6.30;;;;;;;;;;5039257;28;20621;-42
2022/07/17 08:15:32;;;;;;;8.70;6.20;;;;;;;;;;5046689;28;20198;-42
2022/07/17 08:17:59;;;;;;;9.63;6.37;;;;;;;;;;5049219;28;20178;-41
2022/07/17 08:20:26;;;;;;;9.80;6.40;;;;;;;;;;5046542;28;20186;-41
2022/07/17 08:22:52;;;;;;;8.03;5.90;;;;;;;;;;5044675;28;20175;-41
2022/07/17 08:25:18;;;;;;;10.80;6.60;;;;;;;;;;5049224;28;20214;-42
2022/07/17 08:27:44;;;;;;;10.70;6.43;;;;;;;;;;5048927;28;20178;-42
2022/07/17 08:30:12;;;;;;;7.13;5.43;;;;;;;;;;5050485;28;20183;-41
2022/07/17 08:32:40;;;;;;;11.97;5.83;;;;;;;;;;5048634;28;20534;-41
2022/07/17 08:35:06;;;;;;;11.37;5.60;;;;;;;;;;5049528;28;20194;-42
2022/07/17 08:37:42;;;;;;;9.47;5.73;;;;;;;;;;5045761;28;20171;-40
2022/07/17 08:40:08;;;;;;;10.93;5.30;;;;;;;;;;5048275;28;20186;-42
2022/07/17 08:42:42;;;;;;;11.17;5.50;;;;;;;;;;5050150;28;20248;-42
2022/07/17 08:45:08;;;;;;;7.33;5.20;;;;;;;;;;5044966;28;20826;-42
2022/07/17 08:47:35;;;;;;;9.47;5.17;;;;;;;;;;5052163;28;20438;-42
2022/07/17 08:50:03;;;;;;;10.70;5.50;;;;;;;;;;5056011;28;20179;-42
2022/07/17 08:52:29;;;;;;;9.83;5.67;;;;;;;;;;5053600;28;21158;-42
2022/07/17 08:54:56;;;;;;;10.67;5.73;;;;;;;;;;5051197;28;20283;-42
2022/07/17 08:57:22;;;;;;;9.97;5.57;;;;;;;;;;5045291;28;20684;-42
2022/07/17 08:59:49;;;;;;;6.93;5.10;;;;;;;;;;5047133;28;20175;-42
2022/07/17 09:02:15;;;;;;;6.03;5.00;;;;;;;;;;5044192;28;20709;-42
2022/07/17 09:04:41;;;;;;;8.83;4.90;;;;;;;;;;5047949;28;20185;-43
2022/07/17 09:07:07;;;;;;;9.57;5.37;;;;;;;;;;5047459;28;20641;-42
2022/07/17 09:09:33;;;;;;;7.30;4.83;;;;;;;;;;5049832;28;20466;-42
2022/07/17 09:12:00;;;;;;;9.57;5.30;;;;;;;;;;5050276;28;20187;-42
2022/07/17 09:14:36;;;;;;;12.53;5.33;;;;;;;;;;5044013;28;20504;-42
2022/07/17 09:17:04;;;;;;;7.90;4.77;;;;;;;;;;5056220;28;20217;-42
2022/07/17 09:19:31;;;;;;;6.93;4.63;;;;;;;;;;5050543;28;20190;-42
2022/07/17 09:22:24;;;;;;;9.33;4.90;;;;;;;;;;5046636;28;20198;-42
2022/07/17 09:24:54;;;;;;;11.77;4.60;;;;;;;;;;5044346;28;20195;-41
2022/07/17 09:27:23;;;;;;;9.80;4.53;;;;;;;;;;5048757;28;20188;-42
2022/07/17 09:30:10;;;;;;;9.00;4.90;;;;;;;;;;5049422;28;20431;-43
2022/07/17 09:32:37;;;;;;;9.63;4.83;;;;;;;;;;5049178;28;20467;-43
2022/07/17 09:35:04;;;;;;;7.80;4.20;;;;;;;;;;5053805;28;20191;-43
2022/07/17 09:37:31;;;;;;;10.97;4.50;;;;;;;;;;5056206;28;20284;-43
2022/07/17 09:39:58;;;;;;;10.40;4.60;;;;;;;;;;5046643;28;20177;-42
2022/07/17 09:42:33;;;;;;;17.83;5.47;;;;;;;;;;5046254;28;20172;-43
2022/07/17 09:45:01;;;;;;;14.10;4.83;;;;;;;;;;5047340;28;20189;-42
2022/07/17 09:47:28;;;;;;;9.67;4.73;;;;;;;;;;5049240;28;20521;-43
2022/07/17 09:49:55;;;;;;;11.30;4.40;;;;;;;;;;5044522;28;20708;-42
2022/07/17 09:52:24;;;;;;;11.70;5.07;;;;;;;;;;5046410;28;20908;-41
2022/07/17 09:54:53;;;;;;;12.97;5.03;;;;;;;;;;5050626;28;20636;-43
2022/07/17 09:57:20;;;;;;;10.13;4.57;;;;;;;;;;5046057;28;20192;-43
2022/07/17 09:59:47;;;;;;;15.00;4.77;;;;;;;;;;5043945;28;20176;-43
2022/07/17 10:02:13;;;;;;;11.87;4.17;;;;;;;;;;5048581;28;20267;-43
2022/07/17 10:04:40;;;;;;;8.50;4.47;;;;;;;;;;5051626;28;20169;-43
2022/07/17 10:07:08;;;;;;;10.43;4.67;;;;;;;;;;5048380;28;20180;-43
2022/07/17 10:09:35;;;;;;;11.17;4.30;;;;;;;;;;5046950;28;20844;-44
2022/07/17 10:12:01;;;;;;;10.57;4.73;;;;;;;;;;5038495;28;20635;-43
2022/07/17 10:14:28;;;;;;;11.30;4.60;;;;;;;;;;5044209;28;20710;-43
2022/07/17 10:16:54;;;;;;;10.47;4.23;;;;;;;;;;5043136;28;20166;-42
2022/07/17 10:19:25;;;;;;;11.93;4.80;;;;;;;;;;5046601;28;20625;-43
2022/07/17 10:21:54;;;;;;;10.43;4.43;;;;;;;;;;5050119;28;20585;-43
2022/07/17 10:24:21;;;;;;;12.10;4.43;;;;;;;;;;5049449;28;20682;-42
2022/07/17 10:26:49;;;;;;;13.37;4.57;;;;;;;;;;5047788;28;21204;-42
2022/07/17 10:29:34;;;;;;;8.27;4.10;;;;;;;;;;5049353;28;20177;-43
2022/07/17 10:32:01;;;;;;;11.57;4.23;;;;;;;;;;5047987;28;20274;-43
2022/07/17 10:34:41;;;;;;;11.37;4.23;;;;;;;;;;5046088;28;20530;-42
2022/07/17 10:37:27;;;;;;;11.83;4.70;;;;;;;;;;5042577;28;20190;-42
2022/07/17 10:39:53;;;;;;;9.43;4.00;;;;;;;;;;5046301;28;20499;-42
2022/07/17 10:42:38;;;;;;;6.87;3.97;;;;;;;;;;5047056;28;20762;-42
2022/07/17 10:45:08;;;;;;;8.30;3.87;;;;;;;;;;5047167;28;20426;-42
2022/07/17 10:47:46;;;;;;;8.77;4.27;;;;;;;;;;5044397;28;20531;-42
2022/07/17 10:50:13;;;;;;;6.37;4.20;;;;;;;;;;5046957;28;20291;-42
2022/07/17 10:52:39;;;;;;;7.23;4.17;;;;;;;;;;5047366;28;20299;-42
2022/07/17 10:55:06;;;;;;;9.97;4.00;;;;;;;;;;5046596;28;20718;-41
2022/07/17 10:57:32;;;;;;;10.90;4.03;;;;;;;;;;5043833;28;20765;-42
2022/07/17 10:59:59;;;;;;;11.70;4.20;;;;;;;;;;5048349;28;20178;-42
2022/07/17 11:02:29;;;;;;;7.37;3.90;;;;;;;;;;5047425;28;20299;-42
2022/07/17 11:04:55;;;;;;;7.50;4.20;;;;;;;;;;5045688;28;20220;-42
2022/07/17 11:07:21;;;;;;;6.97;4.20;;;;;;;;;;5043510;28;20188;-42
2022/07/17 11:09:48;;;;;;;6.30;4.20;;;;;;;;;;5046991;28;20274;-42
2022/07/17 11:12:16;;;;;;;6.93;4.27;;;;;;;;;;5047133;28;20731;-42
2022/07/17 11:14:42;;;;;;;9.53;4.07;;;;;;;;;;5043575;28;20754;-42
2022/07/17 11:17:08;;;;;;;8.60;3.73;;;;;;;;;;5048966;28;20572;-42
2022/07/17 11:19:38;;;;;;;8.67;3.80;;;;;;;;;;5045253;28;20278;-42
2022/07/17 11:22:05;;;;;;;7.77;4.23;;;;;;;;;;5045038;28;20578;-42
2022/07/17 11:24:44;;;;;;;9.27;4.20;;;;;;;;;;5045436;28;20581;-43
2022/07/17 11:27:11;;;;;;;6.37;4.03;;;;;;;;;;5044874;28;20177;-43
2022/07/17 11:29:37;;;;;;;7.80;4.00;;;;;;;;;;5043969;28;20592;-43
2022/07/17 11:32:04;;;;;;;6.60;3.93;;;;;;;;;;5047265;28;20182;-42
2022/07/17 11:34:30;;;;;;;11.43;4.13;;;;;;;;;;5048619;28;20716;-42
2022/07/17 11:37:02;;;;;;;15.93;4.00;;;;;;;;;;5044313;28;20435;-42
2022/07/17 11:39:37;;;;;;;6.90;3.60;;;;;;;;;;5045418;28;20209;-41
2022/07/17 11:42:04;;;;;;;8.33;4.03;;;;;;;;;;5050046;28;20212;-42
2022/07/17 11:44:30;;;;;;;7.80;3.83;;;;;;;;;;5044583;28;20192;-42
2022/07/17 11:46:56;;;;;;;8.03;3.73;;;;;;;;;;5045579;28;20657;-42
2022/07/17 11:49:29;;;;;;;7.07;4.00;;;;;;;;;;5048472;28;20185;-42
2022/07/17 11:52:08;;;;;;;7.13;3.57;;;;;;;;;;5045080;28;20175;-43
2022/07/17 11:54:43;;;;;;;11.23;4.07;;;;;;;;;;5045177;28;20296;-43
2022/07/17 11:57:09;;;;;;;8.23;3.63;;;;;;;;;;5052656;28;20479;-42
2022/07/17 11:59:35;;;;;;;7.57;3.60;;;;;;;;;;5050674;28;20601;-42
2022/07/17 12:02:19;;;;;;;6.10;3.77;;;;;;;;;;5050002;28;20177;-42
2022/07/17 12:04:58;;;;;;;9.57;3.87;;;;;;;;;;5046497;28;20182;-43
2022/07/17 12:07:26;;;;;;;10.27;3.83;;;;;;;;;;5051841;28;20198;-42
2022/07/17 12:09:53;;;;;;;8.20;3.87;;;;;;;;;;5046151;28;20521;-42
2022/07/17 12:12:20;;;;;;;6.63;3.70;;;;;;;;;;5048659;28;20186;-42
2022/07/17 12:14:47;;;;;;;4.97;3.90;;;;;;;;;;5053773;28;20202;-42
2022/07/17 12:17:13;;;;;;;7.70;3.23;;;;;;;;;;5044238;28;20843;-45
2022/07/17 12:19:39;;;;;;;11.13;4.07;;;;;;;;;;5029654;28;20178;-42
2022/07/17 12:22:06;;;;;;;4.20;3.53;;;;;;;;;;5049005;28;20174;-42
2022/07/17 12:24:33;;;;;;;7.47;3.73;;;;;;;;;;5053678;28;20178;-41
2022/07/17 12:27:01;;;;;;;6.47;3.90;;;;;;;;;;5051165;28;20854;-43
2022/07/17 12:29:27;;;;;;;7.43;3.70;;;;;;;;;;5042935;28;20182;-44
2022/07/17 12:32:03;;;;;;;8.03;3.80;;;;;;;;;;5047216;28;20189;-44
2022/07/17 12:34:29;;;;;;;6.27;3.50;;;;;;;;;;5050511;28;20586;-44
2022/07/17 12:36:55;;;;;;;7.90;3.80;;;;;;;;;;5050168;28;20183;-44
2022/07/17 12:39:21;;;;;;;7.73;3.67;;;;;;;;;;5049263;28;21233;-44
2022/07/17 12:41:47;;;;;;;6.97;3.90;;;;;;;;;;5049474;28;20652;-43
2022/07/17 12:44:13;;;;;;;7.10;4.20;;;;;;;;;;5050691;28;20874;-43
2022/07/17 12:46:39;;;;;;;5.73;3.50;;;;;;;;;;5043456;28;20594;-43
2022/07/17 12:49:05;;;;;;;6.50;3.60;;;;;;;;;;5044927;28;21331;-43
2022/07/17 12:51:31;;;;;;;6.17;3.80;;;;;;;;;;5053360;28;20655;-43
2022/07/17 12:53:58;;;;;;;7.93;3.60;;;;;;;;;;5048510;28;20659;-44
2022/07/17 12:56:25;;;;;;;3.93;3.47;;;;;;;;;;5046537;28;20217;-44
2022/07/17 12:58:51;;;;;;;7.97;3.83;;;;;;;;;;5047421;28;20178;-43
2022/07/17 13:01:17;;;;;;;6.97;3.80;;;;;;;;;;5048921;28;20401;-43
2022/07/17 13:03:43;;;;;;;8.10;3.53;;;;;;;;;;5042734;28;20179;-43
2022/07/17 13:06:10;;;;;;;5.87;3.60;;;;;;;;;;5045574;28;20187;-43
2022/07/17 13:08:36;;;;;;;6.30;3.90;;;;;;;;;;5046361;28;20179;-44
2022/07/17 13:11:03;;;;;;;7.27;3.67;;;;;;;;;;5050137;28;20202;-43
2022/07/17 13:13:29;;;;;;;7.07;3.40;;;;;;;;;;5045285;28;20176;-43
2022/07/17 13:15:56;;;;;;;6.60;3.60;;;;;;;;;;5045016;28;20863;-43
2022/07/17 13:18:22;;;;;;;6.10;3.20;;;;;;;;;;5048279;28;20221;-43
2022/07/17 13:20:49;;;;;;;9.47;3.60;;;;;;;;;;5042315;28;20171;-43
2022/07/17 13:23:15;;;;;;;6.03;3.53;;;;;;;;;;5051862;28;20756;-43
2022/07/17 13:25:45;;;;;;;10.23;3.60;;;;;;;;;;5052484;28;20630;-43
2022/07/17 13:28:11;;;;;;;4.80;2.93;;;;;;;;;;5048374;28;20752;-44
2022/07/17 13:30:37;;;;;;;4.37;3.33;;;;;;;;;;5042261;28;20501;-43
2022/07/17 13:33:04;;;;;;;7.70;3.80;;;;;;;;;;5046947;28;20256;-43
2022/07/17 13:35:30;;;;;;;4.07;3.10;;;;;;;;;;5046482;28;20199;-43
2022/07/17 13:38:01;;;;;;;5.57;3.53;;;;;;;;;;5047048;28;20164;-43
2022/07/17 13:40:28;;;;;;;5.57;3.20;;;;;;;;;;5047311;28;20499;-43
2022/07/17 13:42:55;;;;;;;7.23;3.70;;;;;;;;;;5043974;28;20750;-42
2022/07/17 13:45:21;;;;;;;4.30;3.40;;;;;;;;;;5043827;28;21702;-43
2022/07/17 13:47:47;;;;;;;7.83;3.40;;;;;;;;;;5044536;28;20666;-43
2022/07/17 13:50:13;;;;;;;6.40;3.70;;;;;;;;;;5039400;28;20190;-41
2022/07/17 13:52:39;;;;;;;6.17;3.50;;;;;;;;;;5046890;28;20207;-41
2022/07/17 13:55:06;;;;;;;4.97;3.20;;;;;;;;;;5042863;28;20726;-44
2022/07/17 13:57:32;;;;;;;7.43;2.90;;;;;;;;;;5042913;28;20261;-44
2022/07/17 13:59:58;;;;;;;4.03;3.47;;;;;;;;;;5046625;28;20172;-44
2022/07/17 14:02:25;;;;;;;6.43;3.70;;;;;;;;;;5045506;28;20564;-41
2022/07/17 14:04:51;;;;;;;4.60;3.30;;;;;;;;;;5045725;28;20502;-40
2022/07/17 14:07:17;;;;;;;6.47;3.60;;;;;;;;;;5044318;28;20547;-44
2022/07/17 14:09:44;;;;;;;7.47;3.40;;;;;;;;;;5046671;28;20498;-41
2022/07/17 14:12:10;;;;;;;7.07;3.20;;;;;;;;;;5040365;28;20181;-41
2022/07/17 14:14:36;;;;;;;5.00;3.20;;;;;;;;;;5037543;28;20304;-41
2022/07/17 14:17:02;;;;;;;6.13;3.57;;;;;;;;;;5045685;28;20212;-40
2022/07/17 14:19:28;;;;;;;4.37;3.47;;;;;;;;;;5044131;28;20449;-42
2022/07/17 14:21:54;;;;;;;5.70;3.80;;;;;;;;;;5048347;28;20169;-42
2022/07/17 14:24:20;;;;;;;3.20;2.90;;;;;;;;;;5043751;28;20180;-42
2022/07/17 14:26:47;;;;;;;5.07;3.23;;;;;;;;;;5042825;28;20556;-40
2022/07/17 14:29:14;;;;;;;6.60;3.50;;;;;;;;;;5047967;28;20628;-42
2022/07/17 14:31:40;;;;;;;7.03;3.07;;;;;;;;;;5052355;28;20212;-42
2022/07/17 14:34:06;;;;;;;6.00;3.30;;;;;;;;;;5048337;28;20393;-42